Time;durP1;ratioP1;P1;durP2;ratioP2;P2;SDS_P1;SDS_P2;PMS_P1;PMS_P2;Temp;Humidity;BMP_temperature;BMP_pressure;BME280_temperature;BME280_humidity;BME280_pressure;Samples;Min_cycle;Max_cycle;Signal;HPM_P1;HPM_P2
2023/11/08 00:03:53;;;;;;;4.10;3.40;;;;;;;8.98;100.00;99869.64;179475;1251;46135;-81
2023/11/08 00:07:56;;;;;;;5.00;3.00;;;;;;;9.05;100.00;99877.51;178889;1251;45960;-83
2023/11/08 00:11:59;;;;;;;4.00;3.00;;;;;;;9.08;100.00;99876.11;178740;1251;58323;-82
2023/11/08 00:16:03;;;;;;;5.70;3.00;;;;;;;9.17;100.00;99877.75;179672;1251;45986;-82
2023/11/08 00:20:09;;;;;;;4.80;2.70;;;;;;;9.25;100.00;99881.51;179215;1251;44867;-82
2023/11/08 00:24:13;;;;;;;3.40;2.70;;;;;;;9.33;100.00;99882.64;179312;1251;46165;-82
2023/11/08 00:28:16;;;;;;;3.30;2.90;;;;;;;9.42;100.00;99880.40;179256;1254;46022;-82
2023/11/08 00:32:22;;;;;;;4.20;2.50;;;;;;;9.53;100.00;99884.27;180568;1251;58252;-82
2023/11/08 00:36:25;;;;;;;4.60;4.00;;;;;;;9.66;100.00;99883.57;180389;1251;44315;-82
2023/11/08 00:40:28;;;;;;;3.10;2.80;;;;;;;9.77;100.00;99883.05;179873;1251;45948;-83
2023/11/08 00:44:32;;;;;;;3.00;2.70;;;;;;;9.91;100.00;99885.06;179420;1251;46015;-82
2023/11/08 00:48:36;;;;;;;3.90;2.70;;;;;;;10.03;100.00;99881.49;178933;1251;45957;-82
2023/11/08 00:52:39;;;;;;;2.30;2.10;;;;;;;10.14;100.00;99888.23;179546;1250;58225;-81
2023/11/08 00:56:42;;;;;;;3.90;2.20;;;;;;;10.22;100.00;99888.73;179461;1250;44281;-81
2023/11/08 01:00:45;;;;;;;5.50;3.10;;;;;;;10.32;100.00;99888.13;180319;1251;45964;-81
2023/11/08 01:04:49;;;;;;;3.30;2.10;;;;;;;10.37;100.00;99891.56;178823;1251;46401;-81
2023/11/08 01:08:52;;;;;;;2.90;2.60;;;;;;;10.42;100.00;99887.06;180488;1251;55804;-82
2023/11/08 01:12:55;;;;;;;3.90;2.30;;;;;;;10.48;100.00;99885.36;179272;1254;57910;-83
2023/11/08 01:16:59;;;;;;;7.60;2.10;;;;;;;10.53;100.00;99885.41;179516;1251;46178;-81
2023/11/08 01:21:03;;;;;;;2.50;1.50;;;;;;;10.59;100.00;99886.30;179554;1251;45907;-83
2023/11/08 01:25:06;;;;;;;2.30;2.00;;;;;;;10.60;100.00;99890.98;178946;1251;46089;-83
2023/11/08 01:29:09;;;;;;;3.10;1.90;;;;;;;10.60;99.15;99896.85;178679;1251;46402;-82
2023/11/08 01:33:12;;;;;;;2.70;2.20;;;;;;;10.64;99.76;99899.55;181556;1250;56981;-83
2023/11/08 01:37:15;;;;;;;1.80;1.60;;;;;;;10.64;99.88;99894.51;179888;1250;46101;-82
2023/11/08 01:41:19;;;;;;;1.50;1.20;;;;;;;10.67;99.93;99892.30;179365;1251;46105;-82
2023/11/08 01:45:22;;;;;;;4.90;1.70;;;;;;;10.69;99.98;99893.35;179016;1251;45913;-82
2023/11/08 01:49:25;;;;;;;2.90;2.00;;;;;;;10.68;100.00;99894.17;180044;1250;46197;-81
2023/11/08 01:53:32;;;;;;;3.80;1.90;;;;;;;10.70;100.00;99894.35;179228;1251;58466;-82
2023/11/08 01:57:36;;;;;;;4.10;1.60;;;;;;;10.69;100.00;99891.96;178999;1251;46072;-82
2023/11/08 02:01:40;;;;;;;1.20;1.10;;;;;;;10.68;100.00;99892.78;179227;1251;46085;-82
2023/11/08 02:05:44;;;;;;;3.10;1.20;;;;;;;10.68;100.00;99892.56;179519;1251;46015;-81
2023/11/08 02:09:47;;;;;;;3.40;1.80;;;;;;;10.70;100.00;99895.08;179559;1251;45983;-80
2023/11/08 02:13:51;;;;;;;2.20;1.60;;;;;;;10.70;100.00;99890.27;179713;1251;59283;-82
2023/11/08 02:17:54;;;;;;;2.50;1.50;;;;;;;10.71;99.93;99892.31;179269;1251;45977;-82
2023/11/08 02:21:58;;;;;;;3.20;2.30;;;;;;;10.73;100.00;99890.08;180547;1251;45782;-83
2023/11/08 02:26:02;;;;;;;1.50;1.20;;;;;;;10.77;100.00;99889.73;179354;1251;45910;-82
2023/11/08 02:30:07;;;;;;;1.90;1.50;;;;;;;10.78;100.00;99888.52;179856;1251;46441;-81
2023/11/08 02:34:11;;;;;;;2.80;1.40;;;;;;;10.79;99.90;99894.12;179883;1251;57940;-81
2023/11/08 02:38:15;;;;;;;2.00;1.50;;;;;;;10.80;99.96;99897.21;179658;1251;46114;-82
2023/11/08 02:42:19;;;;;;;2.30;1.40;;;;;;;10.84;99.98;99898.14;180488;1251;44077;-83
2023/11/08 02:46:23;;;;;;;2.60;1.70;;;;;;;10.87;100.00;99901.80;180266;1251;45982;-82
2023/11/08 02:50:28;;;;;;;3.40;2.10;;;;;;;10.90;99.78;99901.85;179562;1250;44101;-82
2023/11/08 02:54:33;;;;;;;3.30;1.20;;;;;;;10.91;99.86;99901.23;179816;1254;60172;-81
2023/11/08 02:58:39;;;;;;;3.10;1.50;;;;;;;10.89;99.89;99901.23;179326;1251;45101;-80
2023/11/08 03:02:47;;;;;;;1.50;1.10;;;;;;;10.87;99.98;99903.73;180091;1250;46086;-83
2023/11/08 03:06:52;;;;;;;1.10;1.00;;;;;;;10.81;99.54;99905.99;180092;1251;46184;-82
2023/11/08 03:10:58;;;;;;;3.50;1.20;;;;;;;10.73;99.42;99915.37;180249;1251;44311;-83
2023/11/08 03:15:05;;;;;;;1.30;1.00;;;;;;;10.67;99.64;99917.47;178813;1254;59348;-83
2023/11/08 03:19:11;;;;;;;1.40;1.20;;;;;;;10.59;100.00;99917.34;180070;1253;46452;-83
2023/11/08 03:23:16;;;;;;;1.40;1.10;;;;;;;10.47;100.00;99925.14;179596;1251;45891;-82
2023/11/08 03:27:22;;;;;;;3.60;1.70;;;;;;;10.41;100.00;99926.11;179075;1254;46137;-82
2023/11/08 03:31:29;;;;;;;4.20;1.00;;;;;;;10.37;100.00;99924.36;179632;1254;46191;-83
2023/11/08 03:35:34;;;;;;;7.70;1.80;;;;;;;10.35;100.00;99924.16;179442;1251;59638;-81
2023/11/08 03:39:39;;;;;;;2.50;1.30;;;;;;;10.32;100.00;99925.30;180449;1250;45979;-82
2023/11/08 03:43:44;;;;;;;1.50;1.40;;;;;;;10.32;100.00;99925.27;179233;1251;46091;-83
2023/11/08 03:47:50;;;;;;;1.50;1.20;;;;;;;10.33;99.87;99928.94;179104;1251;46297;-82
2023/11/08 03:51:57;;;;;;;1.20;0.90;;;;;;;10.35;99.86;99926.59;179952;1254;46213;-81
2023/11/08 03:56:04;;;;;;;2.10;1.00;;;;;;;10.37;99.08;99923.94;179301;1250;59824;-82
2023/11/08 04:00:11;;;;;;;3.30;1.60;;;;;;;10.37;98.37;99923.97;178903;1251;46050;-81
2023/11/08 04:04:17;;;;;;;1.80;1.40;;;;;;;10.39;97.75;99927.53;179588;1250;46095;-82
2023/11/08 04:08:21;;;;;;;1.40;1.00;;;;;;;10.38;97.04;99929.04;179065;1250;46121;-81
2023/11/08 04:12:27;;;;;;;2.10;1.40;;;;;;;10.36;96.94;99928.34;178704;1251;45657;-82
2023/11/08 04:16:39;;;;;;;;;;;;;;;10.38;96.97;99933.10;178921;1251;58133;-81
2023/11/08 04:20:45;;;;;;;1.40;1.30;;;;;;;10.37;96.38;99928.03;179368;1251;45935;-85
2023/11/08 04:24:51;;;;;;;;;;;;;;;10.36;96.25;99936.51;180133;1251;46022;-85
2023/11/08 04:28:58;;;;;;;1.30;1.10;;;;;;;10.32;96.18;99941.22;179292;1253;45733;-84
2023/11/08 04:33:03;;;;;;;1.20;1.00;;;;;;;10.26;96.48;99940.52;179542;1250;45983;-85
2023/11/08 04:37:11;;;;;;;1.30;1.00;;;;;;;10.24;96.56;99946.95;179354;1251;59183;-85
2023/11/08 04:41:17;;;;;;;2.10;1.40;;;;;;;10.20;97.00;99946.55;179922;1251;46111;-82
2023/11/08 04:45:20;;;;;;;1.80;0.90;;;;;;;10.18;97.20;99946.68;179497;1256;46203;-85
2023/11/08 04:49:25;;;;;;;1.70;0.80;;;;;;;10.16;97.27;99952.86;179700;1251;45884;-85
2023/11/08 04:53:28;;;;;;;0.80;0.80;;;;;;;10.14;97.10;99950.91;179035;1251;45977;-85
2023/11/08 04:57:32;;;;;;;2.10;1.30;;;;;;;10.09;96.74;99952.04;179073;1256;58856;-84
2023/11/08 05:01:36;;;;;;;2.10;1.60;;;;;;;10.06;96.72;99954.06;179848;1251;44650;-84
2023/11/08 05:05:39;;;;;;;2.30;1.20;;;;;;;10.08;97.47;99953.33;179393;1251;46157;-85
2023/11/08 05:09:43;;;;;;;1.50;1.00;;;;;;;10.10;97.14;99948.23;178596;1251;46108;-84
2023/11/08 05:13:47;;;;;;;1.20;1.10;;;;;;;10.11;96.87;99958.45;179437;1251;49017;-82
2023/11/08 05:17:52;;;;;;;1.10;1.00;;;;;;;10.07;97.79;99956.98;179502;1253;59923;-83
2023/11/08 05:21:56;;;;;;;1.40;0.60;;;;;;;10.03;98.62;99954.64;179788;1251;46207;-82
2023/11/08 05:25:59;;;;;;;1.10;0.60;;;;;;;9.99;98.47;99956.42;179297;1251;45989;-81
2023/11/08 05:30:04;;;;;;;1.10;0.70;;;;;;;9.97;98.73;99961.53;180245;1251;45986;-82
2023/11/08 05:34:07;;;;;;;0.90;0.70;;;;;;;10.00;99.43;99963.08;180292;1251;46069;-84
2023/11/08 05:38:12;;;;;;;2.50;1.00;;;;;;;9.99;98.71;99966.66;178970;1251;59796;-84
2023/11/08 05:42:16;;;;;;;1.10;1.00;;;;;;;9.97;98.76;99968.27;178856;1251;45932;-84
2023/11/08 05:46:19;;;;;;;1.90;0.60;;;;;;;9.96;98.71;99972.95;180012;1251;45979;-84
2023/11/08 05:50:23;;;;;;;1.20;1.20;;;;;;;10.02;99.15;99970.70;179786;1251;46022;-84
2023/11/08 05:54:26;;;;;;;0.80;0.60;;;;;;;10.05;99.13;99968.86;179938;1251;44228;-85
2023/11/08 05:58:30;;;;;;;2.10;1.30;;;;;;;10.01;97.93;99971.82;178787;1251;58802;-84
2023/11/08 06:02:34;;;;;;;1.20;0.90;;;;;;;9.89;98.07;99974.79;179920;1251;46165;-84
2023/11/08 06:06:38;;;;;;;1.20;0.80;;;;;;;9.83;98.59;99979.01;178501;1251;46114;-85
2023/11/08 06:10:41;;;;;;;1.10;0.90;;;;;;;9.82;98.39;99985.78;179645;1251;45951;-84
2023/11/08 06:14:45;;;;;;;2.40;1.00;;;;;;;9.81;98.60;99991.75;179709;1251;45986;-84
2023/11/08 06:18:48;;;;;;;1.60;0.90;;;;;;;9.79;99.83;99989.76;179105;1251;58257;-85
2023/11/08 06:22:51;;;;;;;3.60;1.30;;;;;;;9.74;100.00;99992.35;178472;1251;46026;-83
2023/11/08 06:26:55;;;;;;;2.10;1.60;;;;;;;9.74;100.00;99992.18;179152;1250;237136;-84
2023/11/08 06:30:58;;;;;;;2.00;0.60;;;;;;;9.75;100.00;99997.95;179378;1251;46107;-85
2023/11/08 06:35:02;;;;;;;2.40;0.90;;;;;;;9.78;100.00;100002.08;178906;1250;45973;-84
2023/11/08 06:39:05;;;;;;;1.00;0.90;;;;;;;9.83;100.00;99995.67;178993;1251;58980;-83
2023/11/08 06:43:09;;;;;;;6.90;2.40;;;;;;;9.91;100.00;99997.29;179366;1250;46223;-85
2023/11/08 06:47:15;;;;;;;3.60;2.20;;;;;;;9.99;100.00;99994.70;179449;1251;46069;-85
2023/11/08 06:51:18;;;;;;;2.60;1.60;;;;;;;10.04;100.00;99995.91;178961;1251;46152;-84
2023/11/08 06:55:21;;;;;;;3.60;1.80;;;;;;;10.06;100.00;99998.40;179409;1250;45981;-84
2023/11/08 06:59:40;;;;;;;4.00;2.30;;;;;;;10.12;100.00;100003.36;179067;1250;58336;-84
2023/11/08 07:03:43;;;;;;;2.20;1.30;;;;;;;10.25;100.00;100009.41;178471;1250;46000;-84
2023/11/08 07:07:47;;;;;;;1.50;1.00;;;;;;;10.34;100.00;100009.45;178857;1250;46277;-83
2023/11/08 07:11:50;;;;;;;9.80;1.70;;;;;;;10.44;100.00;100008.48;178827;1250;45967;-84
2023/11/08 07:15:53;;;;;;;3.70;1.40;;;;;;;10.55;100.00;100007.25;179047;1250;45947;-84
2023/11/08 07:19:57;;;;;;;1.20;1.00;;;;;;;10.56;98.44;100007.66;178933;1250;58721;-82
2023/11/08 07:24:00;;;;;;;3.00;1.60;;;;;;;10.52;97.26;100007.42;178725;1251;44141;-83
2023/11/08 07:28:05;;;;;;;3.20;1.60;;;;;;;10.54;97.92;100012.77;178783;1250;46044;-83
2023/11/08 07:32:12;;;;;;;2.20;0.80;;;;;;;10.52;94.07;100017.23;179025;1250;45997;-85
2023/11/08 07:36:15;;;;;;;1.40;1.30;;;;;;;10.63;94.11;100015.75;178846;1251;46025;-84
2023/11/08 07:40:18;;;;;;;1.30;0.80;;;;;;;10.87;94.30;100020.46;179428;1250;59538;-85
2023/11/08 07:44:21;;;;;;;1.30;1.10;;;;;;;11.00;92.66;100020.73;179422;1251;45996;-83
2023/11/08 07:48:26;;;;;;;2.60;1.30;;;;;;;11.10;92.68;100024.83;179374;1251;44354;-84
2023/11/08 07:52:29;;;;;;;1.00;0.60;;;;;;;11.15;91.62;100024.05;178978;1250;45970;-85
2023/11/08 07:56:33;;;;;;;2.30;1.30;;;;;;;11.14;91.49;100027.66;180033;1251;44569;-84
2023/11/08 08:05:53;;;;;;;3.50;0.70;;;;;;;11.10;90.39;100027.98;179361;1251;46204;-84
2023/11/08 08:09:57;;;;;;;2.40;0.90;;;;;;;11.17;90.85;100029.58;179275;1250;45881;-82
2023/11/08 08:14:00;;;;;;;2.00;0.60;;;;;;;11.19;89.08;100032.34;179136;1251;46130;-85
2023/11/08 08:18:03;;;;;;;2.10;0.50;;;;;;;11.18;88.51;100030.31;179219;1250;45996;-84
2023/11/08 08:22:07;;;;;;;2.30;0.80;;;;;;;11.21;88.61;100037.14;179634;1251;57910;-84
2023/11/08 08:26:10;;;;;;;1.50;1.10;;;;;;;11.32;90.50;100035.17;179219;1253;44352;-84
2023/11/08 08:30:16;;;;;;;1.90;1.20;;;;;;;11.36;89.08;100031.64;179443;1250;46022;-84
2023/11/08 08:34:19;;;;;;;1.40;0.90;;;;;;;11.41;88.02;100034.70;178568;1251;46435;-84
2023/11/08 08:38:33;;;;;;;2.60;1.30;;;;;;;11.43;88.15;100040.41;179290;1251;45976;-83
2023/11/08 08:42:41;;;;;;;2.40;0.80;;;;;;;11.47;88.26;100042.88;178990;1251;57878;-86
2023/11/08 08:46:45;;;;;;;1.50;1.00;;;;;;;11.50;87.61;100043.52;179371;1251;46225;-84
2023/11/08 08:50:48;;;;;;;1.80;1.40;;;;;;;11.46;87.37;100047.41;179403;1250;46101;-84
2023/11/08 08:54:51;;;;;;;1.20;0.90;;;;;;;11.59;88.04;100051.19;180383;1251;45996;-84
2023/11/08 08:58:54;;;;;;;1.60;0.70;;;;;;;11.68;86.80;100051.63;179363;1250;46015;-83
2023/11/08 09:02:57;;;;;;;4.50;1.40;;;;;;;11.72;86.65;100047.20;179548;1252;60294;-85
2023/11/08 09:07:02;;;;;;;7.60;1.40;;;;;;;11.89;85.99;100050.35;179226;1251;45951;-83
2023/11/08 09:11:06;;;;;;;6.90;1.40;;;;;;;12.19;87.38;100046.54;178863;1251;46207;-85
2023/11/08 09:15:12;;;;;;;3.60;0.90;;;;;;;12.49;85.04;100049.52;178597;1251;46094;-85
2023/11/08 09:19:17;;;;;;;4.50;1.40;;;;;;;12.56;82.29;100051.43;179536;1251;45868;-85
2023/11/08 09:23:20;;;;;;;0.60;0.50;;;;;;;12.48;82.48;100048.98;180017;1251;57983;-85
2023/11/08 09:27:24;;;;;;;2.00;1.00;;;;;;;12.41;82.31;100052.85;179120;1251;46009;-85
2023/11/08 09:31:27;;;;;;;1.90;0.70;;;;;;;12.42;82.58;100055.30;178595;1250;46101;-84
2023/11/08 09:35:31;;;;;;;1.70;0.50;;;;;;;12.39;83.44;100052.52;179166;1251;46201;-85
2023/11/08 09:39:36;;;;;;;1.20;0.50;;;;;;;12.34;83.65;100049.40;178938;1250;45961;-85
2023/11/08 09:43:41;;;;;;;3.70;0.80;;;;;;;12.29;83.31;100052.16;179168;1251;58027;-85
2023/11/08 09:47:47;;;;;;;3.60;1.50;;;;;;;12.26;82.83;100054.05;178731;1253;46289;-84
2023/11/08 09:51:53;;;;;;;;;;;;;;;12.25;81.53;100056.27;178946;1250;46425;-84
2023/11/08 09:55:59;;;;;;;1.30;0.70;;;;;;;12.24;84.08;100058.85;178872;1255;46028;-85
2023/11/08 10:00:03;;;;;;;2.40;0.80;;;;;;;12.27;82.50;100053.27;180275;1251;45986;-84
2023/11/08 10:04:10;;;;;;;1.10;0.70;;;;;;;12.30;84.24;100049.84;178905;1251;58225;-85
2023/11/08 10:08:14;;;;;;;1.90;0.80;;;;;;;12.26;83.22;100048.59;178997;1251;46076;-80
2023/11/08 10:12:21;;;;;;;1.90;0.90;;;;;;;12.15;82.07;100042.48;179517;1250;44060;-84
2023/11/08 10:16:24;;;;;;;1.20;0.90;;;;;;;12.13;83.96;100045.10;178736;1251;46089;-83
2023/11/08 10:20:35;;;;;;;1.70;0.70;;;;;;;12.08;84.89;100038.66;179629;1253;46043;-85
2023/11/08 10:24:51;;;;;;;1.70;0.90;;;;;;;12.03;85.73;100041.22;178534;1251;59544;-84
2023/11/08 10:29:01;;;;;;;2.20;1.10;;;;;;;12.03;85.93;100044.13;179814;1251;46098;-83
2023/11/08 10:33:14;;;;;;;1.00;0.80;;;;;;;12.00;85.94;100038.82;179719;1251;45999;-84
2023/11/08 10:37:24;;;;;;;3.00;0.80;;;;;;;11.97;85.70;100038.91;179483;1251;46070;-84
2023/11/08 10:41:28;;;;;;;1.20;0.80;;;;;;;11.95;86.39;100040.30;180207;1253;46083;-84
2023/11/08 10:45:32;;;;;;;1.10;0.80;;;;;;;12.02;87.23;100043.50;178953;1251;58221;-85
2023/11/08 10:49:37;;;;;;;2.80;0.50;;;;;;;12.05;87.34;100041.55;179019;1251;46110;-84
2023/11/08 10:53:40;;;;;;;1.10;0.70;;;;;;;12.06;86.56;100046.69;179454;1251;45970;-85
2023/11/08 10:57:58;;;;;;;0.70;0.50;;;;;;;12.04;85.13;100045.42;178935;1253;46191;-83
2023/11/08 11:02:20;;;;;;;2.50;1.00;;;;;;;11.69;92.06;100049.94;179617;1251;45964;-84
2023/11/08 11:06:23;;;;;;;2.30;0.90;;;;;;;11.32;95.39;100047.89;179460;1251;59455;-84
2023/11/08 11:10:28;;;;;;;1.60;0.80;;;;;;;11.22;99.30;100049.52;179632;1250;44057;-84
2023/11/08 11:14:37;;;;;;;2.10;1.90;;;;;;;11.13;98.33;100048.68;179080;1250;46245;-84
2023/11/08 11:18:47;;;;;;;1.70;0.80;;;;;;;11.25;99.78;100045.30;178683;1252;46359;-85
2023/11/08 11:22:50;;;;;;;1.50;1.20;;;;;;;11.36;97.83;100036.19;179569;1250;46121;-84
2023/11/08 11:26:54;;;;;;;2.70;0.80;;;;;;;11.43;96.81;100036.64;178767;1253;57952;-84
2023/11/08 11:31:34;;;;;;;2.70;0.90;;;;;;;11.49;98.62;100038.75;180157;1251;46081;-84
2023/11/08 11:35:42;;;;;;;1.80;0.90;;;;;;;11.63;99.67;100039.84;179371;1251;44325;-84
2023/11/08 11:39:55;;;;;;;3.10;0.60;;;;;;;11.78;97.68;100038.50;179841;1253;46282;-84
2023/11/08 11:43:58;;;;;;;2.00;0.70;;;;;;;11.92;95.77;100043.77;179802;1251;45896;-85
2023/11/08 11:48:01;;;;;;;2.90;0.70;;;;;;;12.02;93.63;100040.63;178777;1251;57896;-85
2023/11/08 11:52:05;;;;;;;1.50;1.30;;;;;;;12.09;94.03;100042.88;178907;1250;46008;-82
2023/11/08 11:56:09;;;;;;;3.20;0.70;;;;;;;12.14;91.96;100040.28;178869;1250;45894;-82
2023/11/08 12:00:13;;;;;;;1.70;1.00;;;;;;;12.10;91.39;100040.80;179439;1250;45981;-84
2023/11/08 12:04:21;;;;;;;4.80;0.80;;;;;;;12.13;90.82;100036.41;179426;1251;45984;-84
2023/11/08 12:08:25;;;;;;;1.10;1.00;;;;;;;12.17;90.84;100041.06;178875;1251;59505;-85
2023/11/08 12:12:44;;;;;;;3.70;1.30;;;;;;;12.20;89.97;100042.73;180152;1251;46005;-85
2023/11/08 12:16:49;;;;;;;2.10;1.10;;;;;;;12.26;91.90;100045.89;179925;1249;45948;-85
2023/11/08 12:20:53;;;;;;;3.20;1.10;;;;;;;12.24;88.65;100042.19;178899;1253;46094;-84
2023/11/08 12:24:56;;;;;;;2.40;1.00;;;;;;;12.30;89.43;100044.66;178794;1251;46071;-85
2023/11/08 12:28:59;;;;;;;2.00;0.90;;;;;;;12.34;89.59;100037.30;179216;1251;59058;-85
2023/11/08 12:33:03;;;;;;;2.40;0.90;;;;;;;12.35;87.64;100040.05;179035;1251;46009;-84
2023/11/08 12:37:06;;;;;;;3.80;0.80;;;;;;;12.19;87.86;100041.73;178707;1253;45986;-83
2023/11/08 12:41:09;;;;;;;1.60;0.90;;;;;;;12.05;88.21;100038.08;179987;1250;44298;-84
2023/11/08 12:45:28;;;;;;;2.10;1.00;;;;;;;11.91;90.55;100044.08;179076;1251;46111;-85
2023/11/08 12:49:50;;;;;;;1.70;0.80;;;;;;;11.85;91.31;100041.95;179233;1251;59222;-82
2023/11/08 12:53:55;;;;;;;4.80;1.80;;;;;;;11.85;91.54;100043.52;179279;1251;46174;-85
2023/11/08 12:58:28;;;;;;;2.30;1.50;;;;;;;11.82;89.91;100043.30;178567;1251;46248;-85
2023/11/08 13:02:31;;;;;;;4.50;1.90;;;;;;;11.78;92.13;100045.27;178619;1250;46213;-83
2023/11/08 13:06:34;;;;;;;1.30;0.90;;;;;;;11.70;91.51;100045.40;179244;1251;46178;-85
2023/11/08 13:10:37;;;;;;;3.60;1.30;;;;;;;11.72;92.75;100046.70;178648;1251;56880;-85
2023/11/08 13:14:40;;;;;;;1.50;1.00;;;;;;;11.69;91.66;100046.02;178886;1253;46097;-85
2023/11/08 13:18:44;;;;;;;1.00;0.80;;;;;;;11.68;91.62;100047.63;178984;1251;46027;-84
2023/11/08 13:22:47;;;;;;;1.50;0.90;;;;;;;11.73;93.57;100046.08;179356;1250;44319;-85
2023/11/08 13:26:52;;;;;;;2.20;1.10;;;;;;;11.82;91.85;100042.54;179478;1251;45552;-83
2023/11/08 13:30:57;;;;;;;4.00;1.20;;;;;;;11.86;90.67;100045.27;179086;1251;59998;-85
2023/11/08 13:35:00;;;;;;;0.90;0.80;;;;;;;11.92;91.25;100046.17;178944;1251;44479;-85
2023/11/08 13:39:04;;;;;;;3.20;1.30;;;;;;;11.84;89.34;100049.84;179097;1250;46000;-85
2023/11/08 13:43:08;;;;;;;1.10;0.90;;;;;;;11.69;89.91;100052.95;178723;1251;45983;-85
2023/11/08 13:47:11;;;;;;;3.90;0.90;;;;;;;11.61;90.66;100049.63;178871;1251;46025;-85
2023/11/08 13:51:14;;;;;;;1.60;1.00;;;;;;;11.55;91.69;100052.25;178562;1251;58023;-85
2023/11/08 13:55:18;;;;;;;1.50;1.10;;;;;;;11.43;92.62;100053.89;179002;1251;45956;-85
2023/11/08 13:59:22;;;;;;;3.50;0.60;;;;;;;11.43;93.22;100051.77;178658;1251;45698;-83
2023/11/08 14:03:25;;;;;;;4.70;1.00;;;;;;;11.47;93.11;100058.09;178847;1251;46044;-83
2023/11/08 14:07:30;;;;;;;2.00;1.50;;;;;;;11.46;92.60;100056.60;179506;1256;46449;-85
2023/11/08 14:11:33;;;;;;;5.90;1.80;;;;;;;11.41;93.19;100057.75;178704;1251;57883;-84
2023/11/08 14:15:36;;;;;;;1.60;1.00;;;;;;;11.32;93.30;100057.31;178777;1251;45990;-84
2023/11/08 14:19:43;;;;;;;4.90;2.10;;;;;;;11.31;93.90;100060.45;179338;1251;45652;-83
2023/11/08 14:23:46;;;;;;;2.50;1.90;;;;;;;11.39;93.65;100056.88;178832;1251;46171;-84
2023/11/08 14:27:49;;;;;;;4.20;1.80;;;;;;;11.47;92.73;100056.59;178936;1256;46182;-85
2023/11/08 14:31:53;;;;;;;1.80;1.40;;;;;;;11.51;91.59;100055.80;179442;1250;58178;-82
2023/11/08 14:46:31;;;;;;;5.60;1.40;;;;;;;11.61;92.31;100055.13;180126;1253;45960;-81
2023/11/08 14:50:34;;;;;;;3.80;1.80;;;;;;;11.56;91.98;100054.49;179932;1251;46012;-78
2023/11/08 14:54:38;;;;;;;3.40;1.20;;;;;;;11.51;91.82;100053.17;180588;1250;58237;-83
2023/11/08 14:58:43;;;;;;;2.90;1.40;;;;;;;11.45;92.07;100055.66;179846;1251;46223;-82
2023/11/08 15:02:47;;;;;;;2.70;1.60;;;;;;;11.41;92.46;100055.13;180135;1251;45992;-82
2023/11/08 15:06:51;;;;;;;2.00;1.50;;;;;;;11.29;91.97;100060.27;179740;1251;46120;-81
2023/11/08 15:10:54;;;;;;;5.30;2.40;;;;;;;11.19;91.65;100056.54;179455;1251;46802;-81
2023/11/08 15:14:58;;;;;;;3.00;1.90;;;;;;;11.06;91.48;100057.65;180420;1252;59541;-82
2023/11/08 15:19:02;;;;;;;2.10;1.50;;;;;;;10.92;92.09;100063.42;180503;1251;44211;-82
2023/11/08 15:23:05;;;;;;;1.90;1.20;;;;;;;10.80;92.75;100068.55;180462;1253;44150;-82
2023/11/08 15:27:10;;;;;;;3.80;1.50;;;;;;;10.72;93.10;100074.20;180798;1251;45955;-82
2023/11/08 15:31:13;;;;;;;8.30;2.30;;;;;;;10.60;93.38;100076.31;180493;1253;44065;-83
2023/11/08 15:35:16;;;;;;;4.40;1.80;;;;;;;10.48;93.00;100079.41;180097;1254;59706;-78
2023/11/08 15:39:20;;;;;;;2.50;1.60;;;;;;;10.44;93.30;100074.77;181067;1251;45948;-83
2023/11/08 15:43:25;;;;;;;2.10;1.70;;;;;;;10.44;92.96;100070.94;180866;1253;46037;-82
2023/11/08 15:47:28;;;;;;;4.00;2.20;;;;;;;10.41;93.26;100069.67;181110;1250;44225;-84
2023/11/08 15:51:32;;;;;;;3.20;1.80;;;;;;;10.39;94.32;100072.66;180290;1249;45855;-83
2023/11/08 15:55:36;;;;;;;5.60;1.70;;;;;;;10.40;95.68;100074.74;179677;1251;58206;-82
2023/11/08 15:59:39;;;;;;;3.40;2.20;;;;;;;10.46;96.48;100076.62;179925;1254;45903;-83
2023/11/08 16:03:42;;;;;;;2.30;1.60;;;;;;;10.53;96.77;100079.04;180247;1251;45903;-82
2023/11/08 16:07:47;;;;;;;2.60;1.40;;;;;;;10.60;96.56;100081.60;179974;1251;45909;-83
2023/11/08 16:11:50;;;;;;;1.90;1.00;;;;;;;10.70;96.27;100084.52;180331;1256;46112;-83
2023/11/08 16:15:53;;;;;;;5.40;1.60;;;;;;;10.75;95.65;100084.61;179909;1254;57877;-81
2023/11/08 16:19:58;;;;;;;5.10;3.50;;;;;;;10.71;95.41;100099.35;180279;1251;45060;-84
2023/11/08 16:24:02;;;;;;;7.30;5.60;;;;;;;10.42;98.94;100128.11;180985;1251;45712;-85
2023/11/08 16:28:05;;;;;;;4.40;3.50;;;;;;;10.29;100.00;100113.44;180430;1250;44153;-84
2023/11/08 16:32:09;;;;;;;7.40;4.80;;;;;;;10.18;100.00;100109.05;180121;1251;45848;-82
2023/11/08 16:36:32;;;;;;;4.10;3.20;;;;;;;10.12;100.00;100125.59;179910;1253;59609;-84
2023/11/08 16:40:35;;;;;;;3.90;2.20;;;;;;;10.10;100.00;100127.18;179481;1250;46028;-83
2023/11/08 16:44:39;;;;;;;4.80;2.80;;;;;;;10.04;100.00;100124.48;179413;1251;45893;-84
2023/11/08 16:48:43;;;;;;;4.90;3.40;;;;;;;10.02;100.00;100110.48;179707;1252;45987;-81
2023/11/08 16:52:47;;;;;;;4.50;3.40;;;;;;;10.01;100.00;100109.86;179184;1251;45935;-83
2023/11/08 16:56:50;;;;;;;8.90;4.70;;;;;;;9.85;100.00;100101.06;179508;1251;60327;-83
2023/11/08 17:00:54;;;;;;;9.10;4.10;;;;;;;9.88;100.00;100105.05;179857;1251;46095;-84
2023/11/08 17:04:57;;;;;;;6.70;4.50;;;;;;;9.88;100.00;100099.73;179770;1251;46142;-81
2023/11/08 17:14:01;;;;;;;8.20;5.50;;;;;;;9.92;100.00;100097.34;179821;1254;45941;-81
2023/11/08 17:18:04;;;;;;;10.20;5.50;;;;;;;9.92;100.00;100100.49;180385;1251;58342;-81
2023/11/08 17:22:07;;;;;;;5.70;4.90;;;;;;;9.87;100.00;100104.27;180188;1251;46083;-80
2023/11/08 17:26:12;;;;;;;8.50;4.90;;;;;;;9.83;100.00;100108.67;179903;1251;46102;-79
2023/11/08 17:30:17;;;;;;;6.90;5.00;;;;;;;9.77;100.00;100108.61;181273;1251;49269;-84
2023/11/08 17:34:21;;;;;;;7.30;6.60;;;;;;;9.70;100.00;100109.50;181143;1251;43876;-83
2023/11/08 17:38:24;;;;;;;15.20;11.50;;;;;;;9.63;100.00;100107.65;179642;1251;59517;-83
2023/11/08 17:42:28;;;;;;;25.50;17.00;;;;;;;9.50;100.00;100111.33;180242;1251;44197;-83
2023/11/08 17:46:31;;;;;;;33.30;23.40;;;;;;;9.38;100.00;100114.55;181580;1251;44086;-83
2023/11/08 17:50:34;;;;;;;33.70;25.30;;;;;;;9.23;100.00;100120.11;180369;1251;45839;-83
2023/11/08 17:54:38;;;;;;;40.00;25.80;;;;;;;9.03;100.00;100121.89;180797;1251;46015;-83
2023/11/08 17:58:41;;;;;;;25.40;19.40;;;;;;;8.89;100.00;100121.17;180820;1251;57895;-84
2023/11/08 18:02:45;;;;;;;26.70;19.00;;;;;;;8.80;100.00;100124.67;181884;1251;43861;-84
2023/11/08 18:06:48;;;;;;;23.60;16.50;;;;;;;8.77;100.00;100129.34;180832;1251;45958;-81
2023/11/08 18:10:51;;;;;;;16.10;14.00;;;;;;;8.73;100.00;100128.77;181213;1251;45945;-80
2023/11/08 18:14:54;;;;;;;21.40;15.80;;;;;;;8.63;100.00;100128.80;179208;1251;45989;-81
2023/11/08 18:18:58;;;;;;;19.10;14.90;;;;;;;8.56;100.00;100125.08;179453;1251;58036;-83
2023/11/08 18:23:05;;;;;;;25.50;18.00;;;;;;;8.51;100.00;100127.98;180994;1251;44093;-81
2023/11/08 18:27:08;;;;;;;56.50;35.30;;;;;;;8.48;100.00;100129.19;180308;1254;366240;-83
2023/11/08 18:31:13;;;;;;;36.10;24.40;;;;;;;8.49;100.00;100125.06;180921;1251;44172;-82
2023/11/08 18:35:16;;;;;;;28.30;16.90;;;;;;;8.54;100.00;100123.48;180167;1251;44344;-82
2023/11/08 18:39:19;;;;;;;23.10;14.20;;;;;;;8.55;100.00;100122.72;179898;1251;59458;-83
2023/11/08 18:43:25;;;;;;;14.50;10.60;;;;;;;8.52;100.00;100122.77;179309;1254;45962;-81
2023/11/08 18:47:29;;;;;;;12.10;8.60;;;;;;;8.42;100.00;100130.34;179852;1251;46728;-82
2023/11/08 18:51:32;;;;;;;12.40;8.40;;;;;;;8.28;100.00;100137.20;179996;1251;46105;-78
2023/11/08 18:55:36;;;;;;;11.30;7.00;;;;;;;8.16;100.00;100139.02;180027;1254;44362;-81
2023/11/08 18:59:39;;;;;;;9.60;6.30;;;;;;;8.05;100.00;100141.05;180003;1251;58652;-82
2023/11/08 19:03:42;;;;;;;11.20;7.30;;;;;;;7.98;100.00;100146.44;180169;1251;46252;-80
2023/11/08 19:07:47;;;;;;;10.00;8.10;;;;;;;7.92;100.00;100146.42;180356;1250;46060;-82
2023/11/08 19:11:50;;;;;;;12.20;8.60;;;;;;;7.90;100.00;100146.35;180567;1251;45290;-82